createdAt,value
2022-09-28T00:01:44.620Z,100.00
2022-09-28T00:04:12.133Z,100.00
2022-09-28T00:06:39.072Z,100.00
2022-09-28T00:09:05.451Z,100.00
2022-09-28T00:11:32.281Z,100.00
2022-09-28T00:14:02.320Z,100.00
2022-09-28T00:16:31.843Z,100.00
2022-09-28T00:18:58.650Z,100.00
2022-09-28T00:21:31.562Z,100.00
2022-09-28T00:24:12.959Z,100.00
2022-09-28T00:26:41.654Z,100.00
2022-09-28T00:29:16.396Z,100.00
2022-09-28T00:31:43.132Z,100.00
2022-09-28T00:34:09.582Z,100.00
2022-09-28T00:36:36.250Z,100.00
2022-09-28T00:39:07.818Z,100.00
2022-09-28T00:41:35.605Z,100.00
2022-09-28T00:44:48.036Z,100.00
2022-09-28T00:47:37.935Z,100.00
2022-09-28T00:50:13.258Z,100.00
2022-09-28T00:52:41.837Z,100.00
2022-09-28T00:55:15.874Z,100.00
2022-09-28T00:57:47.121Z,100.00
2022-09-28T01:00:13.892Z,100.00
2022-09-28T01:02:40.594Z,100.00
2022-09-28T01:05:10.121Z,100.00
2022-09-28T01:07:37.447Z,100.00
2022-09-28T01:10:04.722Z,100.00
2022-09-28T01:12:31.140Z,100.00
2022-09-28T01:14:59.228Z,100.00
2022-09-28T01:17:31.718Z,100.00
2022-09-28T01:20:23.372Z,100.00
2022-09-28T01:23:22.442Z,100.00
2022-09-28T01:26:20.066Z,100.00
2022-09-28T01:28:49.272Z,100.00
2022-09-28T01:31:17.378Z,100.00
2022-09-28T01:34:08.142Z,100.00
2022-09-28T01:36:43.684Z,100.00
2022-09-28T01:39:15.036Z,100.00
2022-09-28T01:41:45.278Z,100.00
2022-09-28T01:44:17.112Z,100.00
2022-09-28T01:46:48.175Z,100.00
2022-09-28T01:49:21.430Z,100.00
2022-09-28T01:52:00.043Z,100.00
2022-09-28T01:54:31.134Z,100.00
2022-09-28T01:57:40.038Z,100.00
2022-09-28T02:00:10.770Z,100.00
2022-09-28T02:02:43.074Z,100.00
2022-09-28T02:05:16.257Z,100.00
2022-09-28T02:07:49.867Z,100.00
2022-09-28T02:10:22.215Z,100.00
2022-09-28T02:12:58.728Z,100.00
2022-09-28T02:15:36.599Z,100.00
2022-09-28T02:18:03.384Z,100.00
2022-09-28T02:20:32.781Z,100.00
2022-09-28T02:23:01.810Z,100.00
2022-09-28T02:25:40.095Z,100.00
2022-09-28T02:28:09.742Z,100.00
2022-09-28T02:30:39.315Z,100.00
2022-09-28T02:33:13.558Z,100.00
2022-09-28T02:35:41.143Z,100.00
2022-09-28T02:38:07.690Z,100.00
2022-09-28T02:40:37.785Z,100.00
2022-09-28T02:43:24.700Z,100.00
2022-09-28T02:46:37.807Z,100.00
2022-09-28T02:49:23.411Z,100.00
2022-09-28T02:52:07.820Z,100.00
2022-09-28T02:54:52.473Z,100.00
2022-09-28T02:57:38.428Z,100.00
2022-09-28T03:00:12.615Z,100.00
2022-09-28T03:02:46.204Z,100.00
2022-09-28T03:05:13.044Z,100.00
2022-09-28T03:07:52.741Z,100.00
2022-09-28T03:10:30.819Z,100.00
2022-09-28T03:12:57.963Z,100.00
2022-09-28T03:15:30.142Z,100.00
2022-09-28T03:17:57.845Z,100.00
2022-09-28T03:20:25.159Z,100.00
2022-09-28T03:23:12.406Z,100.00
2022-09-28T03:25:37.936Z,100.00
2022-09-28T03:28:04.288Z,100.00
2022-09-28T03:30:30.636Z,100.00
2022-09-28T03:33:00.449Z,100.00
2022-09-28T03:35:26.945Z,100.00
2022-09-28T03:37:56.820Z,100.00
2022-09-28T03:40:23.287Z,100.00
2022-09-28T03:42:49.711Z,100.00
2022-09-28T03:45:16.266Z,100.00
2022-09-28T03:47:49.052Z,100.00
2022-09-28T03:50:15.850Z,100.00
2022-09-28T03:52:42.286Z,100.00
2022-09-28T03:55:08.974Z,100.00
2022-09-28T03:57:35.388Z,100.00
2022-09-28T04:00:02.689Z,100.00
2022-09-28T04:02:29.095Z,100.00
2022-09-28T04:04:55.462Z,100.00
2022-09-28T04:07:21.844Z,100.00
2022-09-28T04:09:48.208Z,100.00
2022-09-28T04:12:14.591Z,100.00
2022-09-28T04:14:40.944Z,100.00
2022-09-28T04:17:07.375Z,100.00
2022-09-28T04:19:33.790Z,100.00
2022-09-28T04:22:01.626Z,100.00
2022-09-28T04:24:28.030Z,100.00
2022-09-28T04:27:14.444Z,100.00
2022-09-28T04:29:43.083Z,100.00
2022-09-28T04:32:10.190Z,100.00
2022-09-28T04:34:40.688Z,100.00
2022-09-28T04:37:09.699Z,100.00
2022-09-28T04:39:36.093Z,100.00
2022-09-28T04:42:02.482Z,100.00
2022-09-28T04:44:28.880Z,100.00
2022-09-28T04:46:55.697Z,100.00
2022-09-28T04:49:22.089Z,100.00
2022-09-28T04:51:48.513Z,100.00
2022-09-28T04:54:14.912Z,100.00
2022-09-28T04:56:41.736Z,100.00
2022-09-28T04:59:08.129Z,100.00
2022-09-28T05:01:34.688Z,100.00
2022-09-28T05:04:01.367Z,100.00
2022-09-28T05:06:30.460Z,100.00
2022-09-28T05:08:57.486Z,100.00
2022-09-28T05:11:24.055Z,100.00
2022-09-28T05:13:50.571Z,100.00
2022-09-28T05:16:17.514Z,100.00
2022-09-28T05:18:43.970Z,100.00
2022-09-28T05:21:12.758Z,100.00
2022-09-28T05:23:40.271Z,100.00
2022-09-28T05:26:07.438Z,100.00
2022-09-28T05:28:33.988Z,100.00
2022-09-28T05:31:04.625Z,100.00
2022-09-28T05:33:32.919Z,100.00
2022-09-28T05:36:01.528Z,100.00
2022-09-28T05:38:28.419Z,100.00
2022-09-28T05:40:54.936Z,100.00
2022-09-28T05:43:21.764Z,100.00
2022-09-28T05:45:52.845Z,100.00
2022-09-28T05:48:21.733Z,100.00
2022-09-28T05:50:52.452Z,100.00
2022-09-28T05:53:19.101Z,100.00
2022-09-28T05:55:46.144Z,100.00
2022-09-28T05:58:12.544Z,100.00
2022-09-28T06:00:38.894Z,100.00
2022-09-28T06:03:09.121Z,100.00
2022-09-28T06:05:36.846Z,100.00
2022-09-28T06:08:05.307Z,100.00
2022-09-28T06:10:32.750Z,100.00
2022-09-28T06:12:59.529Z,100.00
2022-09-28T06:15:28.636Z,100.00
2022-09-28T06:18:04.282Z,100.00
2022-09-28T06:20:36.749Z,100.00
2022-09-28T06:23:04.034Z,100.00
2022-09-28T06:25:30.607Z,100.00
2022-09-28T06:28:02.418Z,100.00
2022-09-28T06:30:31.289Z,100.00
2022-09-28T06:32:59.592Z,100.00
2022-09-28T06:35:27.788Z,100.00
2022-09-28T06:37:54.163Z,100.00
2022-09-28T06:40:21.748Z,100.00
2022-09-28T06:42:59.240Z,100.00
2022-09-28T06:45:27.623Z,100.00
2022-09-28T06:48:00.992Z,100.00
2022-09-28T06:50:32.197Z,100.00
2022-09-28T06:52:59.801Z,100.00
2022-09-28T06:55:26.864Z,100.00
2022-09-28T06:58:03.846Z,100.00
2022-09-28T07:00:34.127Z,100.00
2022-09-28T07:03:02.434Z,100.00
2022-09-28T07:05:29.764Z,100.00
2022-09-28T07:07:56.925Z,100.00
2022-09-28T07:10:25.104Z,100.00
2022-09-28T07:12:52.106Z,100.00
2022-09-28T07:15:20.117Z,100.00
2022-09-28T07:17:58.451Z,100.00
2022-09-28T07:20:27.834Z,100.00
2022-09-28T07:23:07.053Z,100.00
2022-09-28T07:25:45.395Z,100.00
2022-09-28T07:28:12.115Z,100.00
2022-09-28T07:30:38.856Z,100.00
2022-09-28T07:33:07.203Z,100.00
2022-09-28T07:35:34.475Z,100.00
2022-09-28T07:38:03.566Z,100.00
2022-09-28T07:40:49.400Z,100.00
2022-09-28T07:43:20.458Z,100.00
2022-09-28T07:45:52.585Z,100.00
2022-09-28T07:48:19.679Z,100.00
2022-09-28T07:50:55.007Z,100.00
2022-09-28T07:53:23.272Z,100.00
2022-09-28T07:55:57.005Z,100.00
2022-09-28T07:58:23.425Z,100.00
2022-09-28T08:00:50.620Z,100.00
2022-09-28T08:03:18.638Z,100.00
2022-09-28T08:05:46.772Z,100.00
2022-09-28T08:08:13.895Z,100.00
2022-09-28T08:10:46.567Z,100.00
2022-09-28T08:13:15.296Z,100.00
2022-09-28T08:15:42.487Z,100.00
2022-09-28T08:18:09.418Z,100.00
2022-09-28T08:20:54.652Z,100.00
2022-09-28T08:23:21.114Z,100.00
2022-09-28T08:25:49.126Z,100.00
2022-09-28T08:28:17.591Z,100.00
2022-09-28T08:30:45.941Z,100.00
2022-09-28T08:33:17.863Z,100.00
2022-09-28T08:35:45.957Z,100.00
2022-09-28T08:38:13.661Z,100.00
2022-09-28T08:41:09.149Z,100.00
2022-09-28T08:44:00.035Z,100.00
2022-09-28T08:46:32.197Z,100.00
2022-09-28T08:49:24.228Z,100.00
2022-09-28T08:52:03.195Z,100.00
2022-09-28T08:54:43.139Z,100.00
2022-09-28T08:57:15.778Z,100.00
2022-09-28T08:59:48.534Z,100.00
2022-09-28T09:02:37.920Z,100.00
2022-09-28T09:05:07.278Z,100.00
2022-09-28T09:08:04.913Z,100.00
2022-09-28T09:10:46.130Z,100.00
2022-09-28T09:13:53.647Z,100.00
2022-09-28T09:16:44.117Z,100.00
2022-09-28T09:19:35.500Z,100.00
2022-09-28T09:22:17.902Z,100.00
2022-09-28T09:24:50.864Z,100.00
2022-09-28T09:27:59.657Z,100.00
2022-09-28T09:30:30.452Z,100.00
2022-09-28T09:33:17.007Z,100.00
2022-09-28T09:35:51.488Z,100.00
2022-09-28T09:38:27.810Z,100.00
2022-09-28T09:41:15.601Z,100.00
2022-09-28T09:44:00.880Z,100.00
2022-09-28T09:47:01.967Z,100.00
2022-09-28T09:49:34.544Z,100.00
2022-09-28T09:52:10.751Z,100.00
2022-09-28T09:54:55.518Z,100.00
2022-09-28T09:57:27.715Z,100.00
2022-09-28T09:59:56.612Z,100.00
2022-09-28T10:02:30.526Z,100.00
2022-09-28T10:05:21.378Z,100.00
2022-09-28T10:07:56.246Z,100.00
2022-09-28T10:10:26.293Z,100.00
2022-09-28T10:12:53.522Z,100.00
2022-09-28T10:15:24.795Z,100.00
2022-09-28T10:17:51.887Z,100.00
2022-09-28T10:20:18.955Z,100.00
2022-09-28T10:22:46.242Z,100.00
2022-09-28T10:25:14.134Z,100.00
2022-09-28T10:27:46.732Z,100.00
2022-09-28T10:30:19.030Z,100.00
2022-09-28T10:32:47.637Z,100.00
2022-09-28T10:35:24.109Z,100.00
2022-09-28T10:38:01.714Z,100.00
2022-09-28T10:40:37.623Z,100.00
2022-09-28T10:43:15.219Z,100.00
2022-09-28T10:45:42.058Z,100.00
2022-09-28T10:48:18.125Z,100.00
2022-09-28T10:50:57.836Z,100.00
2022-09-28T10:53:24.207Z,100.00
2022-09-28T10:56:03.094Z,100.00
2022-09-28T10:58:41.974Z,100.00
2022-09-28T11:01:15.035Z,100.00
2022-09-28T11:03:56.593Z,100.00
2022-09-28T11:06:29.045Z,100.00
2022-09-28T11:08:59.464Z,100.00
2022-09-28T11:11:26.917Z,100.00
2022-09-28T11:14:01.299Z,100.00
2022-09-28T11:16:32.984Z,100.00
2022-09-28T11:19:05.632Z,100.00
2022-09-28T11:21:42.025Z,100.00
2022-09-28T11:24:18.899Z,100.00
2022-09-28T11:26:49.539Z,100.00
2022-09-28T11:29:51.751Z,100.00
2022-09-28T11:32:18.579Z,100.00
2022-09-28T11:34:59.003Z,100.00
2022-09-28T11:37:50.376Z,100.00
2022-09-28T11:40:26.200Z,100.00
2022-09-28T11:43:00.556Z,100.00
2022-09-28T11:45:45.657Z,99.54
2022-09-28T11:48:16.190Z,94.45
2022-09-28T11:50:48.543Z,94.76
2022-09-28T11:53:58.428Z,97.74
2022-09-28T11:56:47.767Z,92.28
2022-09-28T11:59:39.757Z,94.81
2022-09-28T12:02:28.906Z,93.66
2022-09-28T12:05:09.850Z,93.72
2022-09-28T12:07:46.122Z,97.15
2022-09-28T12:10:21.826Z,95.88
2022-09-28T12:13:01.336Z,93.02
2022-09-28T12:15:52.825Z,90.09
2022-09-28T12:18:27.129Z,85.21
2022-09-28T12:21:27.041Z,85.80
2022-09-28T12:23:56.873Z,83.28
2022-09-28T12:26:38.405Z,83.50
2022-09-28T12:29:12.838Z,81.09
2022-09-28T12:31:52.141Z,86.55
2022-09-28T12:34:18.533Z,82.80
2022-09-28T12:37:04.622Z,84.73
2022-09-28T12:39:57.997Z,86.50
2022-09-28T12:42:52.876Z,83.69
2022-09-28T12:46:09.903Z,83.38
2022-09-28T12:49:51.452Z,84.12
2022-09-28T12:51:55.019Z,87.72
2022-09-28T12:54:42.827Z,81.13
2022-09-28T12:57:32.583Z,80.79
2022-09-28T13:00:10.100Z,82.15
2022-09-28T13:02:50.483Z,79.13
2022-09-28T13:05:55.960Z,79.05
2022-09-28T13:08:44.256Z,82.67
2022-09-28T13:11:31.962Z,82.09
2022-09-28T13:14:22.883Z,82.29
2022-09-28T13:16:49.198Z,77.03
2022-09-28T13:19:53.025Z,74.17
2022-09-28T13:22:39.021Z,72.76
2022-09-28T13:25:16.867Z,74.37
2022-09-28T13:27:51.183Z,76.89
2022-09-28T13:30:19.458Z,75.90
2022-09-28T13:32:46.971Z,75.93
2022-09-28T13:35:19.496Z,73.45
2022-09-28T13:37:46.616Z,74.22
2022-09-28T13:40:13.487Z,68.21
2022-09-28T13:42:45.983Z,67.45
2022-09-28T13:45:21.141Z,66.48
2022-09-28T13:47:59.791Z,66.12
2022-09-28T13:50:55.590Z,64.38
2022-09-28T13:53:29.618Z,62.58
2022-09-28T13:56:21.860Z,62.28
2022-09-28T13:58:53.917Z,60.99
2022-09-28T14:01:29.555Z,61.37
2022-09-28T14:04:18.978Z,63.34
2022-09-28T14:06:57.467Z,64.67
2022-09-28T14:09:47.785Z,67.16
2022-09-28T14:12:27.866Z,68.25
2022-09-28T14:14:54.462Z,68.81
2022-09-28T14:17:20.852Z,70.62
2022-09-28T14:19:53.097Z,71.91
2022-09-28T14:22:37.975Z,70.08
2022-09-28T14:25:27.718Z,69.90
2022-09-28T14:28:01.404Z,69.87
2022-09-28T14:30:41.668Z,72.20
2022-09-28T14:33:20.284Z,72.72
2022-09-28T14:35:53.902Z,72.57
2022-09-28T14:38:49.683Z,73.59
2022-09-28T14:41:17.376Z,77.52
2022-09-28T14:43:43.719Z,74.88
2022-09-28T14:46:18.906Z,76.64
2022-09-28T14:49:19.562Z,71.58
2022-09-28T14:51:57.824Z,75.24
2022-09-28T14:54:29.594Z,76.41
2022-09-28T14:57:16.733Z,76.78
2022-09-28T14:59:46.320Z,84.53
2022-09-28T15:02:13.484Z,84.39
2022-09-28T15:04:52.361Z,89.14
2022-09-28T15:07:28.772Z,94.07
2022-09-28T15:09:57.856Z,97.04
2022-09-28T15:12:32.005Z,98.44
2022-09-28T15:14:58.589Z,98.44
2022-09-28T15:17:29.349Z,100.00
2022-09-28T15:20:25.341Z,97.17
2022-09-28T15:22:58.393Z,95.00
2022-09-28T15:25:27.950Z,96.64
2022-09-28T15:28:17.791Z,97.15
2022-09-28T15:30:44.235Z,96.14
2022-09-28T15:33:45.935Z,100.00
2022-09-28T15:36:21.419Z,100.00
2022-09-28T15:39:02.947Z,100.00
2022-09-28T15:41:29.572Z,100.00
2022-09-28T15:44:11.070Z,100.00
2022-09-28T15:46:42.761Z,100.00
2022-09-28T15:49:32.121Z,100.00
2022-09-28T15:52:02.188Z,100.00
2022-09-28T15:54:35.174Z,100.00
2022-09-28T15:57:02.851Z,100.00
2022-09-28T15:59:31.881Z,100.00
2022-09-28T16:02:19.008Z,100.00
2022-09-28T16:04:47.879Z,100.00
2022-09-28T16:07:23.433Z,100.00
2022-09-28T16:09:57.057Z,100.00
2022-09-28T16:12:30.179Z,100.00
2022-09-28T16:14:57.353Z,100.00
2022-09-28T16:17:35.054Z,100.00
2022-09-28T16:20:05.734Z,100.00
2022-09-28T16:22:32.694Z,100.00
2022-09-28T16:25:01.099Z,100.00
2022-09-28T16:27:41.400Z,100.00
2022-09-28T16:30:25.833Z,100.00
2022-09-28T16:32:58.968Z,100.00
2022-09-28T16:35:35.381Z,100.00
2022-09-28T16:38:01.764Z,100.00
2022-09-28T16:40:28.782Z,100.00
2022-09-28T16:42:58.824Z,100.00
2022-09-28T16:45:25.443Z,100.00
2022-09-28T16:47:52.815Z,100.00
2022-09-28T16:50:21.173Z,100.00
2022-09-28T16:53:14.811Z,100.00
2022-09-28T16:55:41.527Z,100.00
2022-09-28T16:58:08.343Z,100.00
2022-09-28T17:00:34.842Z,100.00
2022-09-28T17:03:01.732Z,100.00
2022-09-28T17:05:28.681Z,100.00
2022-09-28T17:08:03.367Z,100.00
2022-09-28T17:10:55.774Z,100.00
2022-09-28T17:13:31.440Z,100.00
2022-09-28T17:15:59.002Z,100.00
2022-09-28T17:18:25.798Z,100.00
2022-09-28T17:20:55.817Z,100.00
2022-09-28T17:23:22.215Z,100.00
2022-09-28T17:25:48.880Z,100.00
2022-09-28T17:28:22.094Z,100.00
2022-09-28T17:30:48.616Z,100.00
2022-09-28T17:33:15.205Z,100.00
2022-09-28T17:35:43.271Z,100.00
2022-09-28T17:38:15.094Z,100.00
2022-09-28T17:40:43.861Z,100.00
2022-09-28T17:43:11.166Z,100.00
2022-09-28T17:45:39.467Z,100.00
2022-09-28T17:48:09.007Z,100.00
2022-09-28T17:50:35.591Z,100.00
2022-09-28T17:53:08.508Z,100.00
2022-09-28T17:55:36.644Z,100.00
2022-09-28T17:58:18.849Z,100.00
2022-09-28T18:00:46.672Z,100.00
2022-09-28T18:03:16.833Z,100.00
2022-09-28T18:05:44.468Z,100.00
2022-09-28T18:08:13.948Z,100.00
2022-09-28T18:10:40.384Z,100.00
2022-09-28T18:13:06.803Z,100.00
2022-09-28T18:15:34.303Z,100.00
2022-09-28T18:18:00.913Z,100.00
2022-09-28T18:20:27.360Z,100.00
2022-09-28T18:22:53.785Z,100.00
2022-09-28T18:25:21.234Z,100.00
2022-09-28T18:27:48.229Z,100.00
2022-09-28T18:30:14.622Z,100.00
2022-09-28T18:32:41.272Z,100.00
2022-09-28T18:35:10.105Z,100.00
2022-09-28T18:37:39.965Z,100.00
2022-09-28T18:40:08.497Z,100.00
2022-09-28T18:42:35.583Z,100.00
2022-09-28T18:45:03.513Z,100.00
2022-09-28T18:47:29.970Z,100.00
2022-09-28T18:49:58.489Z,100.00
2022-09-28T18:52:26.175Z,100.00
2022-09-28T18:54:52.581Z,100.00
2022-09-28T18:57:19.303Z,100.00
2022-09-28T18:59:46.355Z,100.00
2022-09-28T19:02:13.089Z,100.00
2022-09-28T19:04:40.140Z,100.00
2022-09-28T19:07:09.302Z,100.00
2022-09-28T19:09:35.666Z,100.00
2022-09-28T19:12:02.111Z,100.00
2022-09-28T19:14:28.624Z,100.00
2022-09-28T19:16:55.152Z,100.00
2022-09-28T19:19:21.901Z,100.00
2022-09-28T19:21:48.454Z,100.00
2022-09-28T19:24:16.914Z,100.00
2022-09-28T19:26:44.207Z,100.00
2022-09-28T19:29:10.930Z,100.00
2022-09-28T19:31:38.299Z,100.00
2022-09-28T19:34:05.726Z,100.00
2022-09-28T19:36:35.427Z,100.00
2022-09-28T19:39:03.232Z,100.00
2022-09-28T19:41:43.440Z,100.00
2022-09-28T19:44:24.378Z,100.00
2022-09-28T19:46:55.198Z,100.00
2022-09-28T19:49:23.195Z,100.00
2022-09-28T19:52:11.446Z,100.00
2022-09-28T19:54:39.583Z,100.00
2022-09-28T19:57:08.462Z,100.00
2022-09-28T19:59:36.984Z,100.00
2022-09-28T20:02:05.359Z,100.00
2022-09-28T20:04:31.869Z,100.00
2022-09-28T20:06:58.303Z,100.00
2022-09-28T20:09:24.878Z,100.00
2022-09-28T20:11:52.349Z,100.00
2022-09-28T20:14:19.050Z,100.00
2022-09-28T20:16:46.297Z,100.00
2022-09-28T20:19:12.832Z,100.00
2022-09-28T20:21:39.309Z,100.00
2022-09-28T20:24:05.954Z,100.00
2022-09-28T20:26:37.824Z,100.00
2022-09-28T20:29:05.743Z,100.00
2022-09-28T20:31:32.343Z,100.00
2022-09-28T20:33:58.823Z,100.00
2022-09-28T20:36:26.016Z,100.00
2022-09-28T20:38:54.474Z,100.00
2022-09-28T20:41:23.168Z,100.00
2022-09-28T20:43:54.716Z,100.00
2022-09-28T20:46:22.065Z,100.00
2022-09-28T20:48:50.583Z,100.00
2022-09-28T20:51:19.239Z,100.00
2022-09-28T20:53:51.170Z,100.00
2022-09-28T20:56:38.735Z,100.00
2022-09-28T20:59:08.475Z,100.00
2022-09-28T21:01:35.343Z,100.00
2022-09-28T21:04:04.548Z,100.00
2022-09-28T21:06:33.975Z,100.00
2022-09-28T21:09:00.913Z,100.00
2022-09-28T21:11:29.541Z,100.00
2022-09-28T21:13:58.927Z,100.00
2022-09-28T21:16:27.328Z,100.00
2022-09-28T21:18:53.802Z,100.00
2022-09-28T21:21:21.541Z,100.00
2022-09-28T21:23:51.492Z,100.00
2022-09-28T21:26:24.899Z,100.00
2022-09-28T21:28:56.056Z,100.00
2022-09-28T21:31:28.476Z,100.00
2022-09-28T21:33:55.422Z,100.00
2022-09-28T21:36:21.792Z,100.00
2022-09-28T21:38:48.294Z,100.00
2022-09-28T21:41:14.778Z,100.00
2022-09-28T21:43:41.148Z,100.00
2022-09-28T21:46:07.715Z,100.00
2022-09-28T21:48:34.220Z,100.00
2022-09-28T21:51:03.619Z,100.00
2022-09-28T21:53:35.239Z,100.00
2022-09-28T21:56:03.192Z,100.00
2022-09-28T21:58:31.652Z,100.00
2022-09-28T22:01:14.562Z,100.00
2022-09-28T22:03:43.174Z,100.00
2022-09-28T22:06:10.535Z,100.00
2022-09-28T22:08:37.790Z,100.00
2022-09-28T22:11:05.693Z,100.00
2022-09-28T22:13:36.395Z,100.00
2022-09-28T22:16:03.241Z,100.00
2022-09-28T22:18:31.500Z,100.00
2022-09-28T22:21:06.576Z,100.00
2022-09-28T22:23:34.144Z,100.00
2022-09-28T22:26:10.780Z,100.00
2022-09-28T22:28:38.851Z,100.00
2022-09-28T22:31:06.118Z,100.00
2022-09-28T22:33:32.654Z,100.00
2022-09-28T22:35:59.007Z,100.00
2022-09-28T22:38:25.609Z,100.00
2022-09-28T22:40:55.427Z,100.00
2022-09-28T22:43:23.693Z,100.00
2022-09-28T22:45:50.439Z,100.00
2022-09-28T22:48:17.078Z,100.00
2022-09-28T22:50:50.663Z,100.00
2022-09-28T22:53:17.569Z,100.00
2022-09-28T22:55:44.381Z,100.00
2022-09-28T22:58:11.515Z,100.00
2022-09-28T23:00:38.575Z,100.00
2022-09-28T23:03:05.185Z,100.00
2022-09-28T23:05:31.641Z,100.00
2022-09-28T23:07:58.000Z,100.00
2022-09-28T23:10:24.459Z,100.00
2022-09-28T23:12:53.717Z,100.00
2022-09-28T23:15:21.557Z,100.00
2022-09-28T23:17:52.319Z,100.00
2022-09-28T23:20:19.607Z,100.00
2022-09-28T23:22:48.885Z,100.00
2022-09-28T23:25:17.668Z,100.00
2022-09-28T23:27:48.398Z,100.00
2022-09-28T23:30:17.194Z,100.00
2022-09-28T23:32:43.576Z,100.00
2022-09-28T23:35:10.555Z,100.00
2022-09-28T23:37:37.681Z,100.00
2022-09-28T23:40:07.698Z,100.00
2022-09-28T23:42:34.911Z,100.00
2022-09-28T23:45:01.661Z,100.00
2022-09-28T23:47:28.225Z,100.00
2022-09-28T23:49:54.634Z,100.00
2022-09-28T23:52:21.057Z,100.00
2022-09-28T23:54:47.534Z,100.00
2022-09-28T23:57:13.941Z,100.00
2022-09-28T23:59:40.330Z,100.00
